createdAt,value
2022-09-02T00:01:28.743Z,40.45
2022-09-02T00:03:54.967Z,40.47
2022-09-02T00:06:21.210Z,40.48
2022-09-02T00:08:47.895Z,40.41
2022-09-02T00:11:14.051Z,40.41
2022-09-02T00:13:41.424Z,40.50
2022-09-02T00:16:07.640Z,40.51
2022-09-02T00:18:33.841Z,40.53
2022-09-02T00:21:01.596Z,40.53
2022-09-02T00:23:27.797Z,40.72
2022-09-02T00:25:53.932Z,40.77
2022-09-02T00:28:20.089Z,40.76
2022-09-02T00:30:46.441Z,40.65
2022-09-02T00:33:12.573Z,40.75
2022-09-02T00:35:38.723Z,40.78
2022-09-02T00:38:04.869Z,40.76
2022-09-02T00:40:31.061Z,40.91
2022-09-02T00:42:57.224Z,40.79
2022-09-02T00:45:23.400Z,40.91
2022-09-02T00:47:49.546Z,40.99
2022-09-02T00:50:15.677Z,41.08
2022-09-02T00:52:41.828Z,41.05
2022-09-02T00:55:07.966Z,41.22
2022-09-02T00:57:34.109Z,41.21
2022-09-02T01:00:00.745Z,41.20
2022-09-02T01:02:26.919Z,41.25
2022-09-02T01:04:53.084Z,41.35
2022-09-02T01:07:19.252Z,41.45
2022-09-02T01:09:45.387Z,41.52
2022-09-02T01:12:11.538Z,41.53
2022-09-02T01:14:38.040Z,41.47
2022-09-02T01:17:04.170Z,41.44
2022-09-02T01:19:30.294Z,41.46
2022-09-02T01:21:56.451Z,41.77
2022-09-02T01:24:22.598Z,41.78
2022-09-02T01:26:48.727Z,41.83
2022-09-02T01:29:14.864Z,41.77
2022-09-02T01:31:41.090Z,41.94
2022-09-02T01:34:07.338Z,41.97
2022-09-02T01:36:33.489Z,41.93
2022-09-02T01:38:59.625Z,42.06
2022-09-02T01:41:25.758Z,42.16
2022-09-02T01:43:51.908Z,42.28
2022-09-02T01:46:19.797Z,42.27
2022-09-02T01:48:45.970Z,42.44
2022-09-02T01:51:12.127Z,42.40
2022-09-02T01:53:38.322Z,42.25
2022-09-02T01:56:04.446Z,42.46
2022-09-02T01:58:30.612Z,42.53
2022-09-02T02:00:56.819Z,42.45
2022-09-02T02:03:23.075Z,42.60
2022-09-02T02:05:49.354Z,42.72
2022-09-02T02:08:15.502Z,42.79
2022-09-02T02:10:41.649Z,42.79
2022-09-02T02:13:07.813Z,42.85
2022-09-02T02:15:33.948Z,42.79
2022-09-02T02:18:00.089Z,42.99
2022-09-02T02:20:26.244Z,42.96
2022-09-02T02:22:52.382Z,43.04
2022-09-02T02:25:18.526Z,43.03
2022-09-02T02:27:44.668Z,43.06
2022-09-02T02:30:10.792Z,43.02
2022-09-02T02:32:36.925Z,43.13
2022-09-02T02:35:03.087Z,43.04
2022-09-02T02:37:29.208Z,43.06
2022-09-02T02:39:55.339Z,43.12
2022-09-02T02:42:21.496Z,43.23
2022-09-02T02:44:47.627Z,43.15
2022-09-02T02:47:13.765Z,43.37
2022-09-02T02:49:39.929Z,43.13
2022-09-02T02:52:06.083Z,43.46
2022-09-02T02:54:35.057Z,43.46
2022-09-02T02:57:01.528Z,43.47
2022-09-02T02:59:29.357Z,43.55
2022-09-02T03:01:55.650Z,43.62
2022-09-02T03:04:21.938Z,43.62
2022-09-02T03:06:48.052Z,43.63
2022-09-02T03:09:14.190Z,43.70
2022-09-02T03:11:40.357Z,43.79
2022-09-02T03:14:06.502Z,43.78
2022-09-02T03:16:32.689Z,43.90
2022-09-02T03:18:59.234Z,43.93
2022-09-02T03:21:25.370Z,43.96
2022-09-02T03:23:51.504Z,43.90
2022-09-02T03:26:17.878Z,43.84
2022-09-02T03:28:45.169Z,43.98
2022-09-02T03:31:11.343Z,44.08
2022-09-02T03:33:37.555Z,43.99
2022-09-02T03:36:03.699Z,44.02
2022-09-02T03:38:29.827Z,44.19
2022-09-02T03:40:55.979Z,44.27
2022-09-02T03:43:22.188Z,44.38
2022-09-02T03:45:48.453Z,44.29
2022-09-02T03:48:14.638Z,44.43
2022-09-02T03:50:40.779Z,44.55
2022-09-02T03:53:06.918Z,44.40
2022-09-02T03:55:33.064Z,44.41
2022-09-02T03:57:59.193Z,44.63
2022-09-02T04:00:25.312Z,44.74
2022-09-02T04:02:51.489Z,44.58
2022-09-02T04:05:17.638Z,44.57
2022-09-02T04:07:43.766Z,44.66
2022-09-02T04:10:13.227Z,44.62
2022-09-02T04:12:39.386Z,44.82
2022-09-02T04:15:05.540Z,44.81
2022-09-02T04:17:31.697Z,44.79
2022-09-02T04:19:57.841Z,44.78
2022-09-02T04:22:23.977Z,44.78
2022-09-02T04:24:50.177Z,44.92
2022-09-02T04:27:16.309Z,44.86
2022-09-02T04:29:42.456Z,45.27
2022-09-02T04:32:08.611Z,44.91
2022-09-02T04:34:34.762Z,44.91
2022-09-02T04:37:00.895Z,44.97
2022-09-02T04:39:27.057Z,44.99
2022-09-02T04:41:53.185Z,45.17
2022-09-02T04:44:19.328Z,45.01
2022-09-02T04:46:45.564Z,44.98
2022-09-02T04:49:11.734Z,44.92
2022-09-02T04:51:37.853Z,44.93
2022-09-02T04:54:04.019Z,44.74
2022-09-02T04:56:30.140Z,44.84
2022-09-02T04:58:56.289Z,44.96
2022-09-02T05:01:22.496Z,45.18
2022-09-02T05:03:48.661Z,45.12
2022-09-02T05:06:14.790Z,45.15
2022-09-02T05:08:41.429Z,45.13
2022-09-02T05:11:07.559Z,45.36
2022-09-02T05:13:33.677Z,45.29
2022-09-02T05:15:59.863Z,45.32
2022-09-02T05:18:26.004Z,45.39
2022-09-02T05:20:52.138Z,45.42
2022-09-02T05:23:18.339Z,45.35
2022-09-02T05:25:44.549Z,45.53
2022-09-02T05:28:10.678Z,45.42
2022-09-02T05:30:36.886Z,45.44
2022-09-02T05:33:03.028Z,45.65
2022-09-02T05:35:29.510Z,45.71
2022-09-02T05:38:00.245Z,45.78
2022-09-02T05:40:28.918Z,45.56
2022-09-02T05:42:55.204Z,45.61
2022-09-02T05:45:21.357Z,45.63
2022-09-02T05:47:47.484Z,45.53
2022-09-02T05:50:14.345Z,45.49
2022-09-02T05:52:40.561Z,45.47
2022-09-02T05:55:06.687Z,45.59
2022-09-02T05:57:32.840Z,45.72
2022-09-02T05:59:59.002Z,45.59
2022-09-02T06:02:25.280Z,45.53
2022-09-02T06:04:51.579Z,45.75
2022-09-02T06:07:17.738Z,45.45
2022-09-02T06:09:43.876Z,45.82
2022-09-02T06:12:10.023Z,45.58
2022-09-02T06:14:36.184Z,45.39
2022-09-02T06:17:02.321Z,45.38
2022-09-02T06:19:30.118Z,45.36
2022-09-02T06:21:56.263Z,45.24
2022-09-02T06:24:22.430Z,45.26
2022-09-02T06:26:48.580Z,45.33
2022-09-02T06:29:14.786Z,45.29
2022-09-02T06:31:40.930Z,45.18
2022-09-02T06:34:07.070Z,45.25
2022-09-02T06:36:33.221Z,45.11
2022-09-02T06:38:59.370Z,45.07
2022-09-02T06:41:25.501Z,44.99
2022-09-02T06:43:51.663Z,44.94
2022-09-02T06:46:20.440Z,44.88
2022-09-02T06:48:46.588Z,44.82
2022-09-02T06:51:12.728Z,44.79
2022-09-02T06:53:38.868Z,44.74
2022-09-02T06:56:04.997Z,44.65
2022-09-02T06:58:31.153Z,44.57
2022-09-02T07:00:57.364Z,44.56
2022-09-02T07:03:23.609Z,44.43
2022-09-02T07:05:49.793Z,44.41
2022-09-02T07:08:15.939Z,44.24
2022-09-02T07:10:42.086Z,44.37
2022-09-02T07:13:08.525Z,44.10
2022-09-02T07:15:34.658Z,44.14
2022-09-02T07:18:00.810Z,44.07
2022-09-02T07:20:26.960Z,44.02
2022-09-02T07:22:53.092Z,44.10
2022-09-02T07:25:19.234Z,43.93
2022-09-02T07:27:45.385Z,43.85
2022-09-02T07:30:11.525Z,43.76
2022-09-02T07:32:37.769Z,43.82
2022-09-02T07:35:04.410Z,43.72
2022-09-02T07:37:30.561Z,43.54
2022-09-02T07:39:56.704Z,43.47
2022-09-02T07:42:22.875Z,43.55
2022-09-02T07:44:49.034Z,43.47
2022-09-02T07:47:15.186Z,43.26
2022-09-02T07:52:27.441Z,43.24
2022-09-02T07:54:53.610Z,43.04
2022-09-02T07:57:19.738Z,42.79
2022-09-02T07:59:45.856Z,42.72
2022-09-02T08:02:12.072Z,42.72
2022-09-02T08:04:38.245Z,42.74
2022-09-02T08:07:04.375Z,42.64
2022-09-02T08:09:30.550Z,42.55
2022-09-02T08:11:56.689Z,42.47
2022-09-02T08:14:22.858Z,42.22
2022-09-02T08:16:51.327Z,42.10
2022-09-02T08:19:17.542Z,42.12
2022-09-02T08:21:43.690Z,42.13
2022-09-02T08:24:09.843Z,41.78
2022-09-02T08:26:35.968Z,41.64
2022-09-02T08:29:02.104Z,41.65
2022-09-02T08:31:28.290Z,41.71
2022-09-02T08:33:54.489Z,41.43
2022-09-02T08:36:20.613Z,41.37
2022-09-02T08:38:46.756Z,41.30
2022-09-02T08:41:12.897Z,41.10
2022-09-02T08:43:39.024Z,41.10
2022-09-02T08:46:05.370Z,41.07
2022-09-02T08:48:31.669Z,40.92
2022-09-02T08:50:57.807Z,40.88
2022-09-02T08:53:24.000Z,41.04
2022-09-02T08:55:50.216Z,40.79
2022-09-02T08:58:16.352Z,40.53
2022-09-02T09:00:42.594Z,40.55
2022-09-02T09:03:08.791Z,40.48
2022-09-02T09:05:34.921Z,40.35
2022-09-02T09:08:01.077Z,40.19
2022-09-02T09:10:27.197Z,40.29
2022-09-02T09:12:53.328Z,40.28
2022-09-02T09:15:19.769Z,39.93
2022-09-02T09:17:45.907Z,39.99
2022-09-02T09:20:12.056Z,39.45
2022-09-02T09:22:38.237Z,39.43
2022-09-02T09:25:04.365Z,39.58
2022-09-02T09:27:30.517Z,39.33
2022-09-02T09:29:56.670Z,39.07
2022-09-02T09:32:22.864Z,39.00
2022-09-02T09:34:49.000Z,38.75
2022-09-02T09:37:15.223Z,38.73
2022-09-02T09:39:41.353Z,38.72
2022-09-02T09:42:07.490Z,38.49
2022-09-02T09:44:33.647Z,38.38
2022-09-02T09:46:59.768Z,37.99
2022-09-02T09:49:25.917Z,37.92
2022-09-02T09:51:52.082Z,37.58
2022-09-02T09:54:18.233Z,37.27
2022-09-02T09:56:44.444Z,36.93
2022-09-02T09:59:11.007Z,36.74
2022-09-02T10:01:37.134Z,36.30
2022-09-02T10:04:04.960Z,35.58
2022-09-02T10:06:32.939Z,35.28
2022-09-02T10:08:59.066Z,35.33
2022-09-02T10:11:25.222Z,34.97
2022-09-02T10:13:51.384Z,34.68
2022-09-02T10:16:17.547Z,34.69
2022-09-02T10:18:44.816Z,34.22
2022-09-02T10:21:16.195Z,33.88
2022-09-02T10:23:42.593Z,33.61
2022-09-02T10:26:08.733Z,33.52
2022-09-02T10:28:34.867Z,33.34
2022-09-02T10:31:01.002Z,32.87
2022-09-02T10:33:27.131Z,32.79
2022-09-02T10:35:53.701Z,32.02
2022-09-02T10:38:19.913Z,31.76
2022-09-02T10:40:46.149Z,31.55
2022-09-02T10:43:12.380Z,31.27
2022-09-02T10:45:38.515Z,31.30
2022-09-02T10:48:04.637Z,31.27
2022-09-02T10:50:30.800Z,30.86
2022-09-02T10:52:56.942Z,31.03
2022-09-02T10:55:23.069Z,31.06
2022-09-02T10:57:49.234Z,31.07
2022-09-02T11:00:15.375Z,31.02
2022-09-02T11:02:41.505Z,30.72
2022-09-02T11:05:07.659Z,30.75
2022-09-02T11:07:33.802Z,30.89
2022-09-02T11:09:59.930Z,30.71
2022-09-02T11:12:26.098Z,30.35
2022-09-02T11:14:52.220Z,30.22
2022-09-02T11:17:18.377Z,30.19
2022-09-02T11:19:44.618Z,30.37
2022-09-02T11:22:11.023Z,30.21
2022-09-02T11:24:37.566Z,30.24
2022-09-02T11:27:04.426Z,29.89
2022-09-02T11:29:32.490Z,29.85
2022-09-02T11:31:59.017Z,29.92
2022-09-02T11:34:25.199Z,29.54
2022-09-02T11:36:51.327Z,29.70
2022-09-02T11:39:25.772Z,29.39
2022-09-02T11:41:56.966Z,29.18
2022-09-02T11:44:23.778Z,29.05
2022-09-02T11:46:51.135Z,29.07
2022-09-02T11:49:17.325Z,29.13
2022-09-02T11:51:43.466Z,28.97
2022-09-02T11:54:09.604Z,28.98
2022-09-02T11:56:36.623Z,29.00
2022-09-02T11:59:02.883Z,29.05
2022-09-02T12:01:29.646Z,29.09
2022-09-02T12:06:42.778Z,28.93
2022-09-02T12:09:09.041Z,28.70
2022-09-02T12:11:35.180Z,28.64
2022-09-02T12:14:04.052Z,28.39
2022-09-02T12:16:30.997Z,28.27
2022-09-02T12:18:57.200Z,27.96
2022-09-02T12:21:23.611Z,27.88
2022-09-02T12:23:50.088Z,27.87
2022-09-02T12:26:16.262Z,27.77
2022-09-02T12:28:42.412Z,27.58
2022-09-02T12:31:08.757Z,27.51
2022-09-02T12:33:35.180Z,27.47
2022-09-02T12:36:02.024Z,27.50
2022-09-02T12:38:28.238Z,27.36
2022-09-02T12:40:54.420Z,27.41
2022-09-02T12:43:20.600Z,27.35
2022-09-02T12:45:46.750Z,27.36
2022-09-02T12:48:16.066Z,27.27
2022-09-02T12:50:42.196Z,27.14
2022-09-02T12:53:08.444Z,27.04
2022-09-02T12:55:34.564Z,27.28
2022-09-02T12:58:00.714Z,27.36
2022-09-02T13:00:26.888Z,27.36
2022-09-02T13:02:53.087Z,27.48
2022-09-02T13:05:19.231Z,27.56
2022-09-02T13:07:45.399Z,27.67
2022-09-02T13:10:11.610Z,27.58
2022-09-02T13:12:37.748Z,27.51
2022-09-02T13:15:03.921Z,27.43
2022-09-02T13:17:36.460Z,27.59
2022-09-02T13:20:03.172Z,27.62
2022-09-02T13:22:31.108Z,27.51
2022-09-02T13:24:57.521Z,27.45
2022-09-02T13:27:23.732Z,27.56
2022-09-02T13:29:49.950Z,27.60
2022-09-02T13:32:16.089Z,27.65
2022-09-02T13:34:42.233Z,27.64
2022-09-02T13:37:08.371Z,27.56
2022-09-02T13:39:34.506Z,27.56
2022-09-02T13:42:00.649Z,27.88
2022-09-02T13:44:27.316Z,27.78
2022-09-02T13:46:53.451Z,27.64
2022-09-02T13:49:22.719Z,27.86
2022-09-02T13:51:48.919Z,27.74
2022-09-02T13:54:23.404Z,27.85
2022-09-02T13:56:50.125Z,28.12
2022-09-02T13:59:16.272Z,27.95
2022-09-02T14:01:42.578Z,27.96
2022-09-02T14:04:08.824Z,27.89
2022-09-02T14:06:36.172Z,27.84
2022-09-02T14:09:02.317Z,27.79
2022-09-02T14:11:28.473Z,27.88
2022-09-02T14:13:54.611Z,27.83
2022-09-02T14:16:20.745Z,27.78
2022-09-02T14:18:46.900Z,27.76
2022-09-02T14:21:13.042Z,27.90
2022-09-02T14:23:39.169Z,27.95
2022-09-02T14:26:05.325Z,27.94
2022-09-02T14:28:31.456Z,27.81
2022-09-02T14:30:57.615Z,27.88
2022-09-02T14:33:23.807Z,27.70
2022-09-02T14:35:49.955Z,27.49
2022-09-02T14:38:16.111Z,27.30
2022-09-02T14:40:42.282Z,27.25
2022-09-02T14:43:08.532Z,26.84
2022-09-02T14:45:34.675Z,26.87
2022-09-02T14:48:00.820Z,26.71
2022-09-02T14:50:26.954Z,26.58
2022-09-02T14:52:53.089Z,26.17
2022-09-02T14:55:19.245Z,25.90
2022-09-02T14:57:45.376Z,25.33
2022-09-02T15:00:11.997Z,25.28
2022-09-02T15:02:38.146Z,24.84
2022-09-02T15:05:04.380Z,23.97
2022-09-02T15:07:30.604Z,22.70
2022-09-02T15:09:56.788Z,21.17
2022-09-02T15:12:22.925Z,19.89
2022-09-02T15:14:49.058Z,19.37
2022-09-02T15:17:15.215Z,18.29
2022-09-02T15:19:41.358Z,18.68
2022-09-02T15:22:07.496Z,17.95
2022-09-02T15:24:34.101Z,17.89
2022-09-02T15:27:00.222Z,17.95
2022-09-02T15:29:28.983Z,17.62
2022-09-02T15:31:55.342Z,17.37
2022-09-02T15:34:24.718Z,17.60
2022-09-02T15:36:50.849Z,17.40
2022-09-02T15:39:17.020Z,17.26
2022-09-02T15:41:43.203Z,18.05
2022-09-02T15:44:09.354Z,18.14
2022-09-02T15:46:35.678Z,17.52
2022-09-02T15:49:02.871Z,17.64
2022-09-02T15:51:29.232Z,17.14
2022-09-02T15:53:55.393Z,17.19
2022-09-02T15:56:21.524Z,17.40
2022-09-02T15:58:47.667Z,17.18
2022-09-02T16:01:13.932Z,17.18
2022-09-02T16:03:40.173Z,16.88
2022-09-02T16:06:06.311Z,16.74
2022-09-02T16:08:32.455Z,17.11
2022-09-02T16:10:58.596Z,17.16
2022-09-02T16:13:24.728Z,17.25
2022-09-02T16:15:50.876Z,17.71
2022-09-02T16:18:17.010Z,18.25
2022-09-02T16:20:43.187Z,18.28
2022-09-02T16:23:09.347Z,18.41
2022-09-02T16:25:35.479Z,18.79
2022-09-02T16:28:01.625Z,18.59
2022-09-02T16:30:27.821Z,18.62
2022-09-02T16:32:53.981Z,18.62
2022-09-02T16:35:20.129Z,18.38
2022-09-02T16:37:46.578Z,18.29
2022-09-02T16:40:12.713Z,17.48
2022-09-02T16:42:38.876Z,17.52
2022-09-02T16:45:05.035Z,17.47
2022-09-02T16:47:31.161Z,17.54
2022-09-02T16:49:57.284Z,17.69
2022-09-02T16:52:23.538Z,17.81
2022-09-02T16:54:49.695Z,18.21
2022-09-02T16:57:15.853Z,18.52
2022-09-02T16:59:42.022Z,18.56
2022-09-02T17:02:08.219Z,18.69
2022-09-02T17:04:34.415Z,18.67
2022-09-02T17:07:00.574Z,18.73
2022-09-02T17:09:26.708Z,18.86
2022-09-02T17:11:54.399Z,18.90
2022-09-02T17:14:20.633Z,19.24
2022-09-02T17:16:46.895Z,19.40
2022-09-02T17:19:13.142Z,19.23
2022-09-02T17:21:39.304Z,19.48
2022-09-02T17:24:05.445Z,19.60
2022-09-02T17:26:31.621Z,19.90
2022-09-02T17:28:57.785Z,20.27
2022-09-02T17:31:23.926Z,20.38
2022-09-02T17:33:50.063Z,20.60
2022-09-02T17:36:16.217Z,20.99
2022-09-02T17:38:42.787Z,21.55
2022-09-02T17:41:08.923Z,21.46
2022-09-02T17:43:35.083Z,21.49
2022-09-02T17:46:01.243Z,21.46
2022-09-02T17:48:41.678Z,21.45
2022-09-02T17:51:13.523Z,21.60
2022-09-02T17:53:45.923Z,21.85
2022-09-02T17:56:12.361Z,22.08
2022-09-02T17:58:38.512Z,22.34
2022-09-02T18:01:04.697Z,22.67
2022-09-02T18:03:30.909Z,23.09
2022-09-02T18:05:57.100Z,23.41
2022-09-02T18:08:23.312Z,23.81
2022-09-02T18:10:51.869Z,23.82
2022-09-02T18:13:21.940Z,24.29
2022-09-02T18:15:48.078Z,24.53
2022-09-02T18:18:14.272Z,24.76
2022-09-02T18:20:40.450Z,24.81
2022-09-02T18:23:06.612Z,25.05
2022-09-02T18:25:32.760Z,25.23
2022-09-02T18:27:58.918Z,25.30
2022-09-02T18:30:25.067Z,25.51
2022-09-02T18:32:51.234Z,25.83
2022-09-02T18:35:17.567Z,25.92
2022-09-02T18:37:43.872Z,26.32
2022-09-02T18:40:10.071Z,26.19
2022-09-02T18:42:37.420Z,26.51
2022-09-02T18:45:03.571Z,26.73
2022-09-02T18:47:29.715Z,26.91
2022-09-02T18:49:56.210Z,27.04
2022-09-02T18:52:22.348Z,27.29
2022-09-02T18:54:48.484Z,27.50
2022-09-02T18:57:14.648Z,27.79
2022-09-02T18:59:40.772Z,27.90
2022-09-02T19:02:07.024Z,28.26
2022-09-02T19:04:33.267Z,28.30
2022-09-02T19:06:59.403Z,28.57
2022-09-02T19:09:25.540Z,28.73
2022-09-02T19:11:51.711Z,28.92
2022-09-02T19:14:17.859Z,29.25
2022-09-02T19:16:44.037Z,29.44
2022-09-02T19:19:10.301Z,29.55
2022-09-02T19:21:36.599Z,29.84
2022-09-02T19:24:02.960Z,30.00
2022-09-02T19:26:29.307Z,30.14
2022-09-02T19:28:55.643Z,30.37
2022-09-02T19:31:22.053Z,30.53
2022-09-02T19:33:48.243Z,30.66
2022-09-02T19:36:14.399Z,30.73
2022-09-02T19:38:40.543Z,30.84
2022-09-02T19:41:06.706Z,30.95
2022-09-02T19:43:32.844Z,31.17
2022-09-02T19:45:59.573Z,31.31
2022-09-02T19:48:25.832Z,31.33
2022-09-02T19:50:52.135Z,31.59
2022-09-02T19:53:18.264Z,31.68
2022-09-02T19:55:44.465Z,32.10
2022-09-02T19:58:10.593Z,32.11
2022-09-02T20:00:36.756Z,32.33
2022-09-02T20:03:03.032Z,32.35
2022-09-02T20:05:29.170Z,32.68
2022-09-02T20:07:55.333Z,32.69
2022-09-02T20:10:28.223Z,32.73
2022-09-02T20:12:56.244Z,33.17
2022-09-02T20:15:22.391Z,33.23
2022-09-02T20:17:48.548Z,33.40
2022-09-02T20:20:14.696Z,33.34
2022-09-02T20:22:41.206Z,33.41
2022-09-02T20:25:07.368Z,33.58
2022-09-02T20:27:33.514Z,33.77
2022-09-02T20:29:59.666Z,33.91
2022-09-02T20:32:25.788Z,33.96
2022-09-02T20:34:51.939Z,34.21
2022-09-02T20:37:18.081Z,34.25
2022-09-02T20:39:44.256Z,34.18
2022-09-02T20:42:10.575Z,34.43
2022-09-02T20:44:37.024Z,34.32
2022-09-02T20:47:03.210Z,34.50
2022-09-02T20:49:29.370Z,34.74
2022-09-02T20:51:55.900Z,34.80
2022-09-02T20:54:22.845Z,34.89
2022-09-02T20:56:48.970Z,34.95
2022-09-02T20:59:15.140Z,35.05
2022-09-02T21:01:41.300Z,35.16
2022-09-02T21:04:07.461Z,35.13
2022-09-02T21:06:33.649Z,35.34
2022-09-02T21:08:59.802Z,35.46
2022-09-02T21:11:26.502Z,35.62
2022-09-02T21:13:52.677Z,35.78
2022-09-02T21:16:19.784Z,35.75
2022-09-02T21:18:46.266Z,36.07
2022-09-02T21:21:12.433Z,36.13
2022-09-02T21:23:38.570Z,35.97
2022-09-02T21:26:04.707Z,36.17
2022-09-02T21:28:30.853Z,36.28
2022-09-02T21:30:56.972Z,36.51
2022-09-02T21:33:23.118Z,36.47
2022-09-02T21:35:49.281Z,36.58
2022-09-02T21:38:15.475Z,36.61
2022-09-02T21:40:41.657Z,36.62
2022-09-02T21:43:07.837Z,36.81
2022-09-02T21:45:33.985Z,36.85
2022-09-02T21:48:00.125Z,37.02
2022-09-02T21:50:26.294Z,37.04
2022-09-02T21:52:52.426Z,37.19
2022-09-02T21:55:18.565Z,37.15
2022-09-02T21:57:44.771Z,37.25
2022-09-02T22:00:10.909Z,37.37
2022-09-02T22:02:37.027Z,37.44
2022-09-02T22:05:04.636Z,37.32
2022-09-02T22:07:30.769Z,37.38
2022-09-02T22:09:56.918Z,37.59
2022-09-02T22:12:23.058Z,37.69
2022-09-02T22:14:49.198Z,37.69
2022-09-02T22:17:15.332Z,37.96
2022-09-02T22:19:41.499Z,37.98
2022-09-02T22:22:07.633Z,38.03
2022-09-02T22:24:33.770Z,38.06
2022-09-02T22:27:00.015Z,38.07
2022-09-02T22:29:26.180Z,38.19
2022-09-02T22:31:52.340Z,38.15
2022-09-02T22:34:18.536Z,38.24
2022-09-02T22:36:44.700Z,38.33
2022-09-02T22:39:13.715Z,38.37
2022-09-02T22:41:42.908Z,38.53
2022-09-02T22:44:09.063Z,38.48
2022-09-02T22:46:35.286Z,38.55
2022-09-02T22:49:01.476Z,38.50
2022-09-02T22:51:27.605Z,38.67
2022-09-02T22:53:53.750Z,38.64
2022-09-02T22:56:20.495Z,38.91
2022-09-02T22:58:46.651Z,38.80
2022-09-02T23:01:12.787Z,38.83
2022-09-02T23:03:39.042Z,38.93
2022-09-02T23:06:05.199Z,39.02
2022-09-02T23:08:31.383Z,39.01
2022-09-02T23:10:57.546Z,39.08
2022-09-02T23:13:23.714Z,39.25
2022-09-02T23:15:49.959Z,39.35
2022-09-02T23:18:16.169Z,39.27
2022-09-02T23:20:42.306Z,39.40
2022-09-02T23:23:08.450Z,39.55
2022-09-02T23:25:34.601Z,39.99
2022-09-02T23:28:00.747Z,39.60
2022-09-02T23:30:26.901Z,39.60
2022-09-02T23:32:55.780Z,39.68
2022-09-02T23:35:21.915Z,39.80
2022-09-02T23:37:48.047Z,39.63
2022-09-02T23:40:14.210Z,39.86
2022-09-02T23:42:40.360Z,39.85
2022-09-02T23:45:06.496Z,39.88
2022-09-02T23:47:33.659Z,39.89
2022-09-02T23:49:59.821Z,39.86
2022-09-02T23:52:25.985Z,40.10
2022-09-02T23:54:52.189Z,40.23
2022-09-02T23:57:18.370Z,40.19
2022-09-02T23:59:44.491Z,40.09
